Val-d'Or Airport
CYVO : now visible

Airfield :











YOU CAN JOIN US ON...

 
LOGIN :

Register | Disclaimer

   EN    FR    IT 

 









Legend :    VFR   Marginal VFR   IFR   Intensive IFR   Very Intensive IFR
Visi :
Ceiling :
>= 8 km
>= 3000ft
5 to 8 km
1000 to 3000 ft
1500m to 5 km
500 to 1000 ft
800 to 1500m
200 to 500 ft
< 800m
< 200 ft
Symbols :   Thunderstorms  Fog  Heavy snow  Heavy precipitations  Wind > 20 kt






- Airport Elevation : 1107 ft
- IATA code : YVO


CYVO - Val-d'Or

CURRENT METAR :
  • 301100Z 22003KT 15SM FEW050 OVC100 M19/M22 A3011 RMK SC2AC6 SLP238

EXPIRED METARs :
  • 301000Z AUTO 21005KT 9SM BKN130 BKN150 M20/M22 A3011 RMK SLP235
  • 300900Z AUTO 21005KT 9SM CLR M21/M23 A3012 RMK SLP237

TAF TAF CYVO
Valid from the 30 at 06:00 until the 30 at 18:00 UTC


300540Z 3006/3018 VRB03KT P6SM BKN030
TEMPO 3006/3013 5SM -SN OVC020
FM301300 18005KT 2SM -SN BKN008 OVC015
TEMPO 3013/3018 6SM -SN OVC025 RMK FCST BASED ON AUTO OBS. NXT FCST BY 301200Z
CZUL FIR / North America



MET'MAP, your aeronautical weather chart ! - Copyright ORBIFLY December 2007 - Disclaimer

ORBIFLY MET'MAP TEAM :

Programming & Development : Alexandra Zaïnal
Original concept : Baudouin d'Aumeries
Technical & hardware support : Manuel Goepfert
Assistance : Marc-Olivier Méhu




SOURCES & CREDITS :

   NOAA       Earth
Advisory